Aviation Digital Data Service (ADDS)

Output produced by METARs form (1025 UTC 19 January 2019)
found at http://www.aviationweather.gov/metar/data/
 
KAAT 190955Z AUTO 26004KT 10SM OVC023 02/01 A3030 RMK AO2 SLP275 T00170011
KACV 190953Z AUTO 14010KT 10SM -RA SCT038 SCT075 OVC090 14/12 A3019 RMK AO2 PK WND 14027/0916 RAE19B41 SLP227 P0002 T01390122
KACV 191021Z 1910/2006 14014G25KT P6SM -RA FEW060 OVC080 
     FM191500 16008KT 4SM -RA BR BKN015 OVC020 
     FM200100 15005KT 6SM BR BKN025
       
KAUN 191015Z AUTO 12005KT 10SM SCT018 BKN026 OVC043 10/08 A3039 RMK A01
KAVX 190951Z AUTO 01006KT 10SM CLR 12/09 A3025 RMK AO2 SLP241 T01170094 $
KBFL 190954Z AUTO 08005KT 6SM BR CLR 10/08 A3038 RMK AO2 SLP285 T01000078
KBFL 190908Z 1909/2006 VRB01KT 5SM BR BKN200 
     FM191800 23003KT P6SM SCT200
       
KL35 191015Z AUTO 00000KT 10SM CLR M03/M03 A3041 RMK AO2
KBIH 190956Z AUTO 32005KT 10SM CLR 01/M02 A3040 RMK AO2 SLP286 T00061017
KBIH 190520Z 1906/2006 34006KT P6SM SCT250 
     FM192000 17006KT P6SM SCT250 
     FM200300 33005KT P6SM SCT250
       
KBLH 190952Z AUTO 35010KT 10SM CLR 15/02 A3029 RMK AO2 SLP252 T01500022
KBLH 190520Z 1906/2006 35009KT P6SM FEW250
       
KL08 191015Z AUTO 00000KT 10SM FEW030 SCT036 SCT043 07/07 A3030 RMK AO2
KBUR 190953Z AUTO 25005KT 10SM CLR 10/08 A3024 RMK AO2 SLP234 T01000078
KBUR 190535Z 1906/2006 VRB03KT P6SM SCT200
       
KC83 191015Z AUTO 00000KT 6SM BR OVC004 12/11 A3039 RMK AO2
KCMA 190955Z AUTO 36004KT 10SM CLR 11/07 A3025 RMK AO2 SLP252 T01060067
KCMA 190535Z 1906/2006 VRB03KT P6SM SCT200 
     FM191200 06007KT P6SM SCT200 
     FM191600 06012G18KT P6SM SCT200 
     FM192200 07008KT P6SM SCT200 
     FM200300 VRB03KT P6SM OVC200
       
KCRQ 190953Z AUTO 00000KT 6SM BR CLR 11/10 A3022 RMK AO2 SLP233 T01110100
KCRQ 190530Z 1906/2006 VRB04KT P6SM SCT250 
     FM192200 27008KT P6SM SKC 
     FM200000 VRB04KT P6SM SKC
       
KCIC 191015Z AUTO 13008KT 10SM OVC018 12/10 A3038 RMK AO1
KCNO 191020Z AUTO 33003KT 2SM BR CLR 08/07 A3026 RMK AO2 T00780072
KO22 191015Z AUTO 00000KT 10SM OVC042 09/09 A3039 RMK A01
KCCR 190953Z AUTO 00000KT 8SM OVC037 13/11 A3038 RMK AO2 SLP272 T01280106
KAJO 190956Z AUTO 11006KT 9SM CLR A3026 RMK AO2 RAE30UPB05E07B30E43 SLPNO P0000 FZRANO $
KCEC 190956Z AUTO 16017G24KT 5SM -RA BR OVC021 13/12 A3016 RMK AO2 RAE27B50 SLP213 P0001 T01330117
KCEC 190709Z 1907/2006 17020G27KT P6SM -RA SCT010 BKN028 OVC040 
     TEMPO 1907/1911 3SM +RA BKN020 
     FM191100 19010KT 3SM RA OVC020 WS020/19040KT 
     FM192100 19006KT 2SM RA OVC015
       
KDAG 190950Z AUTO 28005KT 10SM CLR 06/05 A3035 RMK AO2 SLP272 T00560050
KDAG 190520Z 1906/2006 26006KT P6SM FEW250 
     FM191900 08007KT P6SM SCT250 
     FM200200 VRB05KT P6SM SCT250
       
KEDU 191020Z AUTO 13004KT 10SM OVC029 12/11 A3039 RMK AO1
KDLO 191015Z AUTO 09003KT 7SM CLR 06/05 A3039 RMK AO2 T00580050
KBLU 190952Z AUTO VRB04KT 1/2SM -RA FG VV003 04/03 A3040 RMK AO2 RAB17 SLP289 P0003 T00390033 $
KFOT 191015Z AUTO 12016G22KT 10SM SCT027 BKN048 OVC060 12/12 A3022 RMK AO1
KFAT 190953Z 09003KT 10SM SCT250 09/08 A3040 RMK AO2 SLP292 T00940078
KFAT 191002Z 1910/2006 09002KT P6SM SCT250 
     FM191200 07002KT 5SM BR SCT250 
     FM191800 16003KT P6SM SCT250
       
KFUL 190953Z AUTO 00000KT 9SM CLR 12/09 A3023 RMK AO2 SLP235 T01170094
KGOO 191020Z AUTO 13005KT 2SM OVC002 07/07 A3038 RMK AO1
KHAF 191015Z AUTO 00000KT 8SM OVC025 13/09 A3036 RMK AO2
KHJO 191014Z AUTO 00000KT 3/4SM BR VV004 07/07 A3040 RMK AO2 T00720067
KHHR 190953Z AUTO 00000KT 8SM CLR 12/11 A3025 RMK AO2 SLP242 T01220111
KHWD 190954Z AUTO 07004KT 10SM SCT035 OVC043 14/09 A3036 RMK AO2 SLP290 T01390089
KCVH 191020Z AUTO 00000KT 10SM OVC043 11/09 A3038 RMK A01
KIPL 190953Z AUTO 27005KT 10SM CLR 10/07 A3027 RMK AO2 SLP250 T01000072
KIPL 190520Z 1906/2006 27004KT P6SM FEW250 
     FM191900 33005KT P6SM SKC 
     FM200100 26003KT P6SM SCT250
       
KJAQ 191015Z AUTO 00000KT 10SM OVC036 11/09 A3038 RMK AO1 T01070088
KWJF 190956Z AUTO 28005KT 10SM CLR 04/03 A3038 RMK AO2 SLP291 T00390028
KWJF 190535Z 1906/2006 VRB03KT P6SM SCT200 
     FM191000 VRB03KT 5SM BR VCFG SCT002 SCT200 
     FM191700 VRB03KT P6SM SCT200
       
KPOC 190447Z 00000KT 10SM CLR 10/10 A3028 RMK LAST
KLHM 191015Z AUTO 00000KT 10SM SCT019 SCT027 OVC040 11/10 A3038 RMK AO1
KLVK 190953Z AUTO 08004KT 10SM BKN037 OVC044 12/09 A3037 RMK AO2 SLP283 T01170094
KLVK 190535Z 1906/2006 00000KT P6SM BKN050 OVC150 
     FM190700 25004KT P6SM OVC050 
     FM191300 05003KT P6SM OVC050 
     FM192100 19004KT P6SM OVC040 
     FM200400 VRB03KT P6SM OVC030
       
KLGB 190953Z AUTO 31004KT 9SM CLR 12/10 A3024 RMK AO2 SLP239 T01170100
KLGB 190535Z 1906/2006 VRB03KT P6SM SCT200 
     FM192300 33008KT P6SM SCT200 
     FM200400 VRB03KT P6SM SCT200
       
KLAX 190953Z 08004KT 10SM FEW200 12/11 A3024 RMK AO2 SLP240 T01220111
KLAX 190902Z 1909/2012 04005KT P6SM SCT200 
     FM192000 26008KT P6SM SCT200 
     FM200400 VRB03KT P6SM SCT200
       
KMAE 190953Z AUTO 10005KT 10SM OVC100 11/08 A3039 RMK AO2 SLP291 T01110078
KMMH 191015Z AUTO 00000KT 10SM CLR M06/M06 A3044 RMK AO2 T10571059
KMMH 190536Z 1906/2006 31009KT P6SM SCT120 BKN180 
     FM191000 VRB04KT P6SM SCT180 
     FM191800 12008KT P6SM SCT180
       
KMYV 190953Z AUTO 11009KT 10SM OVC035 12/10 A3039 RMK AO2 SLP294 T01170100
KMER 191015Z AUTO 00000KT 9SM SCT055 BKN085 11/11 A3039 RMK AO1
KMER 190807Z 1908/2006 13003KT P6SM BKN100 
     FM191200 13002KT 5SM BR FEW001 SCT100 
     TEMPO 1913/1917 1/4SM FG BKN001 BKN100 
     FM191800 11002KT P6SM FEW100
       
KMCE 190953Z AUTO 00000KT 10SM FEW060 OVC090 10/09 A3038 RMK AO2 SLP288 T01000094
KMCE 190804Z 1908/2006 09002KT P6SM OVC100 
     FM191200 13002KT 5SM BR SCT001 BKN100 
     TEMPO 1913/1917 1/4SM FG BKN001 OVC100 
     FM191800 11002KT P6SM FEW001 SCT100
       
KMOD 190953Z AUTO 36003KT 10SM OVC070 12/09 A3038 RMK AO2 SLP290 T01170094
KMOD 190536Z 1906/2006 VRB03KT P6SM OVC060 
     FM191300 VRB03KT 4SM BR SCT004 OVC050 
     TEMPO 1913/1917 2SM BR OVC004 
     FM192000 VRB03KT P6SM SCT050 BKN100
       
KMHV 191000Z AUTO 32005KT 10SM FEW038 06/04 A3037 RMK A01
KSIY 190953Z AUTO 03004KT 10SM -RA FEW033 SCT047 OVC060 04/03 A3027 RMK AO2 SLP271 P0004 T00440033
KMRY 190954Z AUTO 09006KT 10SM BKN040 OVC048 11/07 A3037 RMK AO2 SLP297 T01060072
KMRY 190535Z 1906/2006 29005KT P6SM BKN150 
     FM190900 11003KT P6SM OVC100 
     FM191800 28005KT P6SM OVC070 
     FM200300 VRB03KT P6SM OVC050
       
KF70 191015Z AUTO 34004KT 7SM CLR 09/08 A3026 RMK AO1
KAPC 190954Z AUTO 10006KT 10SM OVC032 12/10 A3037 RMK AO2 SLP275 T01220100
KEED 190956Z AUTO 34010KT 10SM CLR 13/02 A3031 RMK AO2 SLP250 T01280017
KEED 190520Z 1906/2006 34009KT P6SM FEW250 
     FM192000 36012KT P6SM SCT250 
     FM200100 33008KT P6SM SCT250
       
KDVO 191015Z AUTO 00000KT 10SM OVC025 11/11 A3037 RMK AO2
KOAK 190953Z 00000KT 10SM BKN036 OVC050 13/11 A3037 RMK AO2 SLP283 T01330106
KOAK 190535Z 1906/2012 15004KT P6SM -SHRA BKN035 OVC050 
     FM191100 13006KT P6SM VCSH OVC050 
     FM191600 13005KT P6SM BKN050 
     FM192100 22005KT P6SM BKN050 
     FM200000 28005KT P6SM OVC040 
     FM200500 VRB03KT P6SM OVC030
       
KL52 191015Z AUTO 00000KT 10SM CLR 09/07 A3033 RMK A01
KONT 190953Z 04004KT 10SM SCT250 11/08 A3024 RMK AO2 SLP238 T01060083
KONT 190530Z 1906/2012 VRB04KT P6SM SCT250
       
KOVE 190953Z AUTO 11007KT 10SM BKN021 BKN025 OVC033 12/09 A3040 RMK AO2 SLP295 T01170094 $
KOXR 190951Z AUTO 00000KT 10SM CLR 10/08 A3026 RMK AO2 SLP246 T01000078
KOXR 190535Z 1906/2006 VRB03KT P6SM SCT200 
     FM191400 06010KT P6SM SCT200 
     FM192200 30008KT P6SM SCT200 
     FM200300 VRB03KT P6SM OVC200
       
KPMD 190953Z AUTO 00000KT 10SM CLR 05/03 A3037 RMK AO2 SLP280 T00500028
KPMD 190535Z 1906/2006 VRB05KT P6SM SCT200
       
KTRM 190952Z AUTO 25004KT 10SM CLR 10/07 A3028 RMK AO2 SLP254 T01000072 TSNO
KTRM 190530Z 1906/2006 VRB04KT P6SM SCT250
       
KPSP 190953Z AUTO 28005KT 10SM CLR 14/04 A3031 RMK AO2 SLP262 T01390039
KPSP 190530Z 1906/2006 VRB04KT P6SM SCT250
       
KPRB 190953Z AUTO 00000KT 8SM CLR 07/06 A3038 RMK AO2 SLP287 T00670061
KPRB 190535Z 1906/2006 VRB03KT P6SM SCT200 
     FM191300 VRB03KT 1/4SM FG VV002 
     FM191700 VRB03KT 3SM BR BKN003 
     FM191800 VRB03KT P6SM SCT200 
     FM192300 10007KT P6SM SCT200 
     FM200100 VRB03KT P6SM OVC200
       
KO69 191015Z AUTO VRB05KT 10SM OVC023 11/11 A3036 RMK A01
KPVF 191015Z AUTO 16003KT 5SM OVC019 09/07 A3040 RMK AO1
KPTV 190956Z AUTO 10004KT 10SM CLR 08/08 A3040 RMK AO2 SLP308 T00830078
KRNM 190953Z AUTO 10004KT 3SM BR FEW002 07/06 A3024 RMK AO2 SLP237 T00670056
KRBL 191019Z AUTO 01003KT 2SM -RA BR OVC007 09/08 A3038 RMK AO2 RAB03 CIG 002V008 P0001 T00890078
KRBL 191020Z 1910/2006 VRB03KT 3SM BR OVC012 
     TEMPO 1910/1914 1 1/2SM -RA BR SCT002 OVC007
       
KRDD 190453Z 32003KT 4SM BR SCT013 BKN029 OVC033 08/07 A3034
KRDD 190536Z 1906/2006 VRB04KT 4SM BR SCT015 OVC030 
     TEMPO 1909/1913 2SM -RA BR OVC007 
     FM192000 15007KT 5SM BR VCSH OVC015